KTRM/TRM METAR and TAF weather

Enter ICAO airport designator
Station Type Date Time Source
KTRM METAR 2020/04/06 10:52 UTC NOAA

KTRM 061052Z AUTO 00000KT 10SM CLR 12/04 A2978 RMK AO2 SLP086 T01170039


Station Type Date Time Source
KTRM Decoded METAR 2020/04/06 10:52 UTC NOAA

Palm Springs, Jacqueline Cochran Regional Airport, CA, United States (KTRM) 33-37-36N 116-09-34W
Apr 06, 2020 - 06:52 AM EDT / 2020.04.06 1052 UTC
Wind: Calm:0
Visibility: 10 mile(s):0
Sky conditions: clear
Temperature: 53.1 F (11.7 C)
Dew Point: 39.0 F (3.9 C)
Relative Humidity: 58%
Pressure (altimeter): 29.78 in. Hg (1008 hPa)
ob: KTRM 061052Z AUTO 00000KT 10SM CLR 12/04 A2978 RMK AO2 SLP086 T01170039
cycle: 11

Station Type Date Time Source
KTRM TAF 2020/04/06 12:35 UTC NOAA

TAF KTRM 061135Z 0612/0712 VRB06KT P6SM SCT060 SCT080
FM062100 27012G20KT P6SM -SHRA BKN060
FM070200 31007KT P6SM VCSH SCT060 BKN080

Example: see airport list